createdAt,value
2019-01-19T00:03:10.272Z,-3.94
2019-01-19T00:06:38.116Z,-4.02
2019-01-19T00:09:52.969Z,-4.18
2019-01-19T00:13:23.792Z,-4.27
2019-01-19T00:16:52.998Z,-4.33
2019-01-19T00:20:20.736Z,-4.37
2019-01-19T00:23:22.593Z,-4.40
2019-01-19T00:30:33.024Z,-4.69
2019-01-19T00:34:01.017Z,-4.39
2019-01-19T00:37:33.385Z,-4.41
2019-01-19T00:41:01.176Z,-4.46
2019-01-19T00:44:16.216Z,-4.53
2019-01-19T00:50:53.331Z,-4.46
2019-01-19T00:54:25.405Z,-4.37
2019-01-19T00:57:53.384Z,-4.60
2019-01-19T01:01:04.553Z,-4.55
2019-01-19T01:04:12.683Z,-4.42
2019-01-19T01:07:39.583Z,-4.62
2019-01-19T01:11:20.491Z,-4.61
2019-01-19T01:15:02.226Z,-4.72
2019-01-19T01:21:27.483Z,-4.57
2019-01-19T01:25:14.134Z,-4.47
2019-01-19T01:28:41.892Z,-4.76
2019-01-19T01:32:09.806Z,-4.54
2019-01-19T01:35:24.450Z,-4.58
2019-01-19T01:38:52.273Z,-4.64
2019-01-19T01:42:26.145Z,-4.54
2019-01-19T01:45:56.706Z,-4.87
2019-01-19T01:49:42.017Z,-4.62
2019-01-19T01:56:26.498Z,-4.89
2019-01-19T02:00:03.629Z,-4.66
2019-01-19T02:03:38.791Z,-4.77
2019-01-19T02:07:27.452Z,-4.74
2019-01-19T02:11:18.455Z,-4.81
2019-01-19T02:14:46.238Z,-4.93
2019-01-19T02:18:22.382Z,-4.89
2019-01-19T02:21:50.197Z,-4.94
2019-01-19T02:29:12.169Z,-4.96
2019-01-19T02:32:48.544Z,-5.00
2019-01-19T02:36:16.300Z,-4.98
2019-01-19T02:39:34.285Z,-5.07
2019-01-19T02:42:24.628Z,-5.26
2019-01-19T02:46:09.725Z,-5.11
2019-01-19T02:49:59.101Z,-5.28
2019-01-19T02:53:26.881Z,-5.20
2019-01-19T02:56:38.910Z,-5.28
2019-01-19T03:00:09.549Z,-5.65
2019-01-19T03:03:40.364Z,-5.42
2019-01-19T03:07:08.206Z,-5.35
2019-01-19T03:10:55.131Z,-5.26
2019-01-19T03:18:39.665Z,-5.28
2019-01-19T03:22:01.080Z,-5.18
2019-01-19T03:25:28.815Z,-5.44
2019-01-19T03:29:11.732Z,-5.36
2019-01-19T03:32:43.039Z,-5.40
2019-01-19T03:36:04.318Z,-5.76
2019-01-19T03:42:49.562Z,-5.65
2019-01-19T03:46:34.646Z,-5.65
2019-01-19T03:50:15.178Z,-5.68
2019-01-19T03:53:43.772Z,-5.59
2019-01-19T03:57:11.509Z,-5.68
2019-01-19T04:00:58.167Z,-5.71
2019-01-19T04:04:34.600Z,-5.68
2019-01-19T04:08:02.346Z,-5.68
2019-01-19T04:11:16.896Z,-5.96
2019-01-19T04:14:54.530Z,-5.90
2019-01-19T04:18:06.411Z,-5.69
2019-01-19T04:21:57.878Z,-5.85
2019-01-19T04:25:22.017Z,-6.05
2019-01-19T04:32:03.115Z,-5.75
2019-01-19T04:34:52.719Z,-5.68
2019-01-19T04:37:42.297Z,-5.82
2019-01-19T04:40:31.888Z,-5.78
2019-01-19T04:43:21.477Z,-5.85
2019-01-19T04:46:11.134Z,-5.94
2019-01-19T04:49:01.071Z,-5.96
2019-01-19T04:55:53.586Z,-6.05
2019-01-19T04:58:43.206Z,-6.05
2019-01-19T05:04:21.534Z,-6.08
2019-01-19T05:07:11.126Z,-6.13
2019-01-19T05:10:00.697Z,-6.19
2019-01-19T05:12:50.918Z,-6.32
2019-01-19T05:15:58.294Z,-6.03
2019-01-19T05:18:48.157Z,-6.16
2019-01-19T05:21:37.821Z,-6.40
2019-01-19T05:24:27.546Z,-6.16
2019-01-19T05:27:35.028Z,-6.04
2019-01-19T05:30:24.607Z,-6.20
2019-01-19T05:33:14.212Z,-6.03
2019-01-19T05:36:03.797Z,-6.04
2019-01-19T05:38:53.399Z,-6.00
2019-01-19T05:41:42.995Z,-6.12
2019-01-19T05:44:32.562Z,-6.21
2019-01-19T05:47:22.152Z,-6.26
2019-01-19T05:50:30.913Z,-6.52
2019-01-19T05:53:20.507Z,-6.57
2019-01-19T05:56:10.471Z,-6.25
2019-01-19T05:59:00.067Z,-6.31
2019-01-19T06:01:49.658Z,-6.27
2019-01-19T06:04:39.338Z,-6.28
2019-01-19T06:07:28.920Z,-6.31
2019-01-19T06:10:18.489Z,-6.27
2019-01-19T06:13:08.056Z,-6.26
2019-01-19T06:15:57.638Z,-6.31
2019-01-19T06:24:56.752Z,-6.17
2019-01-19T06:27:46.338Z,-6.05
2019-01-19T06:30:35.962Z,-6.26
2019-01-19T06:33:25.580Z,-6.41
2019-01-19T06:36:15.359Z,-6.50
2019-01-19T06:39:25.545Z,-6.57
2019-01-19T06:42:15.477Z,-6.58
2019-01-19T06:45:41.954Z,-6.55
2019-01-19T06:48:31.535Z,-6.50
2019-01-19T06:51:21.110Z,-6.62
2019-01-19T06:57:08.376Z,-6.45
2019-01-19T06:59:57.962Z,-6.36
2019-01-19T07:02:48.218Z,-6.39
2019-01-19T07:08:30.947Z,-6.38
2019-01-19T07:23:16.302Z,-6.36
2019-01-19T07:46:37.957Z,-6.02
2019-01-19T07:49:28.890Z,-5.93
2019-01-19T08:01:20.617Z,-5.80
2019-01-19T08:07:17.228Z,-5.66
2019-01-19T08:13:26.219Z,-5.55
2019-01-19T08:16:15.795Z,-5.63
2019-01-19T08:22:02.273Z,-5.28
2019-01-19T08:24:52.195Z,-5.29
2019-01-19T08:30:39.002Z,-4.95
2019-01-19T08:40:28.171Z,-5.13
2019-01-19T08:49:06.071Z,-5.02
2019-01-19T08:51:55.650Z,-4.87
2019-01-19T08:54:45.299Z,-4.90
2019-01-19T08:57:34.885Z,-4.77
2019-01-19T09:00:24.473Z,-4.79
2019-01-19T09:03:14.063Z,-4.70
2019-01-19T09:06:02.582Z,-4.44
2019-01-19T09:08:52.619Z,-4.39
2019-01-19T09:11:42.268Z,-4.21
2019-01-19T09:14:31.865Z,-4.27
2019-01-19T09:17:21.922Z,-4.26
2019-01-19T09:23:43.939Z,-4.12
2019-01-19T09:26:33.857Z,-4.10
2019-01-19T09:29:23.456Z,-3.96
2019-01-19T09:32:13.202Z,-4.27
2019-01-19T09:35:02.906Z,-4.19
2019-01-19T09:37:52.596Z,-4.18
2019-01-19T09:40:42.284Z,-4.10
2019-01-19T09:43:24.208Z,-4.07
2019-01-19T09:49:09.814Z,-3.91
2019-01-19T09:51:59.407Z,-3.69
2019-01-19T09:54:49.085Z,-3.87
2019-01-19T09:57:38.765Z,-3.92
2019-01-19T10:00:35.529Z,-3.93
2019-01-19T10:03:19.884Z,-3.67
2019-01-19T10:06:09.473Z,-3.62
2019-01-19T10:12:51.725Z,-3.50
2019-01-19T10:21:38.828Z,-3.31
2019-01-19T10:24:28.706Z,-3.39
2019-01-19T10:27:18.367Z,-3.04
2019-01-19T10:30:31.513Z,-2.81
2019-01-19T10:33:21.157Z,-2.83
2019-01-19T10:40:15.126Z,-2.54
2019-01-19T10:43:04.787Z,-2.52
2019-01-19T10:45:54.380Z,-2.61
2019-01-19T10:48:44.008Z,-2.47
2019-01-19T10:51:40.825Z,-2.32
2019-01-19T10:54:30.786Z,-2.19
2019-01-19T10:57:20.459Z,-2.63
2019-01-19T11:03:01.943Z,-2.18
2019-01-19T11:05:51.910Z,-1.46
2019-01-19T11:08:41.501Z,2.06
2019-01-19T11:11:31.055Z,2.43
2019-01-19T11:14:21.157Z,3.71
2019-01-19T11:17:10.856Z,3.55
2019-01-19T11:20:00.441Z,3.79
2019-01-19T11:22:47.246Z,4.20
2019-01-19T11:25:36.835Z,4.70
2019-01-19T11:28:26.816Z,4.26
2019-01-19T11:31:16.451Z,3.53
2019-01-19T11:34:06.014Z,5.55
2019-01-19T11:36:55.874Z,4.67
2019-01-19T11:40:04.353Z,5.56
2019-01-19T11:42:53.904Z,6.14
2019-01-19T11:45:43.485Z,5.22
2019-01-19T11:48:33.322Z,4.93
2019-01-19T11:51:22.956Z,3.40
2019-01-19T11:57:22.632Z,4.51
2019-01-19T12:00:53.623Z,5.21
2019-01-19T12:03:43.171Z,5.24
2019-01-19T12:06:32.763Z,5.06
2019-01-19T12:09:22.472Z,5.71
2019-01-19T12:12:12.041Z,5.26
2019-01-19T12:15:01.589Z,6.36
2019-01-19T12:17:51.158Z,7.45
2019-01-19T12:21:06.028Z,6.69
2019-01-19T12:23:48.645Z,5.26
2019-01-19T12:26:38.253Z,6.40
2019-01-19T12:29:27.934Z,6.08
2019-01-19T12:32:17.504Z,6.28
2019-01-19T12:35:07.107Z,7.17
2019-01-19T12:37:57.091Z,5.47
2019-01-19T12:40:47.006Z,5.82
2019-01-19T12:43:37.194Z,6.24
2019-01-19T12:46:26.774Z,7.37
2019-01-19T12:49:16.537Z,6.16
2019-01-19T12:52:06.119Z,7.84
2019-01-19T12:54:57.069Z,6.70
2019-01-19T12:57:47.250Z,7.67
2019-01-19T13:00:37.333Z,9.01
2019-01-19T13:03:26.995Z,8.46
2019-01-19T13:06:54.828Z,8.33
2019-01-19T13:10:29.895Z,7.99
2019-01-19T13:13:43.244Z,7.52
2019-01-19T13:17:11.256Z,7.55
2019-01-19T13:20:34.617Z,8.14
2019-01-19T13:23:57.917Z,6.01
2019-01-19T13:27:25.666Z,6.77
2019-01-19T13:30:53.623Z,6.09
2019-01-19T13:34:21.417Z,7.10
2019-01-19T13:37:49.162Z,6.68
2019-01-19T13:41:16.899Z,8.06
2019-01-19T13:44:23.759Z,6.92
2019-01-19T13:47:51.632Z,7.89
2019-01-19T13:51:07.509Z,6.67
2019-01-19T13:54:35.252Z,7.05
2019-01-19T13:58:02.999Z,7.55
2019-01-19T14:01:52.739Z,8.64
2019-01-19T14:05:08.158Z,8.09
2019-01-19T14:08:35.906Z,7.14
2019-01-19T14:12:00.856Z,6.94
2019-01-19T14:15:17.233Z,7.07
2019-01-19T14:18:44.993Z,5.43
2019-01-19T14:22:23.167Z,3.60
2019-01-19T14:26:09.385Z,4.09
2019-01-19T14:28:58.173Z,2.61
2019-01-19T14:32:13.741Z,2.68
2019-01-19T14:35:41.486Z,2.30
2019-01-19T14:39:28.134Z,3.99
2019-01-19T14:42:51.603Z,2.41
2019-01-19T14:46:08.993Z,1.92
2019-01-19T14:49:22.843Z,2.16
2019-01-19T14:52:50.587Z,2.65
2019-01-19T14:56:20.467Z,2.11
2019-01-19T14:59:49.370Z,3.12
2019-01-19T15:03:17.215Z,1.51
2019-01-19T15:07:02.543Z,0.65
2019-01-19T15:10:33.340Z,0.59
2019-01-19T15:18:08.086Z,0.39
2019-01-19T15:21:53.470Z,0.13
2019-01-19T15:25:09.911Z,0.08
2019-01-19T15:27:56.912Z,-0.17
2019-01-19T15:42:54.608Z,-0.43
2019-01-19T15:46:18.542Z,-0.29
2019-01-19T15:49:46.328Z,-0.58
2019-01-19T15:53:00.125Z,-0.63
2019-01-19T16:00:19.346Z,-1.15
2019-01-19T16:03:47.565Z,-1.47
2019-01-19T16:07:04.842Z,-1.35
2019-01-19T16:10:32.572Z,-1.76
2019-01-19T16:13:52.427Z,-1.49
2019-01-19T16:17:20.223Z,-1.49
2019-01-19T16:24:50.478Z,-1.83
2019-01-19T16:28:27.226Z,-1.92
2019-01-19T16:31:55.206Z,-1.99
2019-01-19T16:35:09.492Z,-1.75
2019-01-19T16:38:47.627Z,-1.76
2019-01-19T16:42:30.265Z,-1.74
2019-01-19T16:45:58.021Z,-1.77
2019-01-19T16:49:11.862Z,-1.85
2019-01-19T16:52:39.629Z,-2.00
2019-01-19T16:55:30.059Z,-2.20
2019-01-19T16:58:58.143Z,-2.26
2019-01-19T17:02:43.376Z,-2.05
2019-01-19T17:06:11.691Z,-2.01
2019-01-19T17:09:32.628Z,-2.08
2019-01-19T17:12:55.689Z,-2.09
2019-01-19T17:19:54.905Z,-2.01
2019-01-19T17:26:51.887Z,-2.17
2019-01-19T17:30:15.972Z,-2.43
2019-01-19T17:33:51.972Z,-2.15
2019-01-19T17:37:23.468Z,-2.15
2019-01-19T17:40:51.305Z,-2.22
2019-01-19T17:48:04.216Z,-2.25
2019-01-19T17:51:48.516Z,-2.23
2019-01-19T17:54:36.953Z,-2.35
2019-01-19T17:58:04.722Z,-2.40
2019-01-19T18:01:32.532Z,-2.50
2019-01-19T18:09:01.573Z,-2.55
2019-01-19T18:12:29.322Z,-2.61
2019-01-19T18:15:57.367Z,-2.56
2019-01-19T18:19:31.019Z,-2.62
2019-01-19T18:23:03.216Z,-2.63
2019-01-19T18:26:31.542Z,-2.73
2019-01-19T18:30:18.244Z,-2.89
2019-01-19T18:34:04.907Z,-2.78
2019-01-19T18:37:18.526Z,-3.07
2019-01-19T18:40:31.983Z,-2.85
2019-01-19T18:43:33.881Z,-2.88
2019-01-19T18:47:01.765Z,-2.89
2019-01-19T18:50:39.725Z,-2.94
2019-01-19T18:54:07.459Z,-3.26
2019-01-19T18:57:35.211Z,-2.96
2019-01-19T19:01:02.952Z,-3.04
2019-01-19T19:04:30.730Z,-3.12
2019-01-19T19:07:58.484Z,-3.16
2019-01-19T19:11:26.231Z,-3.20
2019-01-19T19:15:01.142Z,-3.24
2019-01-19T19:18:47.788Z,-3.25
2019-01-19T19:22:23.439Z,-3.34
2019-01-19T19:25:41.456Z,-3.30
2019-01-19T19:28:30.331Z,-3.39
2019-01-19T19:31:58.078Z,-3.63
2019-01-19T19:35:48.615Z,-3.35
2019-01-19T19:39:14.787Z,-3.44
2019-01-19T19:46:03.269Z,-3.56
2019-01-19T20:11:03.162Z,-3.67
2019-01-19T20:13:52.738Z,-3.73
2019-01-19T20:31:34.200Z,-3.98
2019-01-19T20:40:28.358Z,-4.06
2019-01-19T21:04:44.793Z,-4.30
2019-01-19T21:25:29.111Z,-4.43
2019-01-19T21:28:53.788Z,-4.37
2019-01-19T21:34:36.397Z,-4.46
2019-01-19T21:37:27.222Z,-4.55
2019-01-19T21:47:00.213Z,-4.73
2019-01-19T21:50:26.858Z,-4.74
2019-01-19T21:53:16.663Z,-4.55
2019-01-19T21:56:06.277Z,-4.63
2019-01-19T21:59:14.782Z,-4.72
2019-01-19T22:05:01.506Z,-4.72
2019-01-19T22:07:51.447Z,-4.90
2019-01-19T22:13:38.184Z,-4.62
2019-01-19T22:16:28.029Z,-4.74
2019-01-19T22:19:17.884Z,-4.70
2019-01-19T22:22:05.738Z,-5.00
2019-01-19T22:24:55.349Z,-4.81
2019-01-19T22:31:16.925Z,-4.71
2019-01-19T22:34:06.495Z,-4.73
2019-01-19T22:36:56.359Z,-4.73
2019-01-19T22:49:57.549Z,-5.17
2019-01-19T22:52:45.495Z,-5.19
2019-01-19T22:55:32.170Z,-5.27
2019-01-19T22:58:21.790Z,-5.27
2019-01-19T23:05:30.674Z,-5.33
2019-01-19T23:15:00.451Z,-5.74
2019-01-19T23:17:49.368Z,-5.61
2019-01-19T23:20:39.031Z,-5.38
2019-01-19T23:23:28.629Z,-5.38
2019-01-19T23:30:42.848Z,-5.23
